Time;durP1;ratioP1;P1;durP2;ratioP2;P2;SDS_P1;SDS_P2;PMS_P1;PMS_P2;Temp;Humidity;BMP_temperature;BMP_pressure;BME280_temperature;BME280_humidity;BME280_pressure;Samples;Min_cycle;Max_cycle;Signal;HPM_P1;HPM_P2
2022/12/05 00:00:11;;;;;;;141.20;132.55;;;5.40;99.90;;;;;;4766452;30;20418;-61
2022/12/05 00:02:37;;;;;;;153.47;144.03;;;5.40;99.90;;;;;;4764764;30;20695;-61
2022/12/05 00:05:03;;;;;;;144.40;135.57;;;5.40;99.90;;;;;;4767750;30;20410;-61
2022/12/05 00:07:29;;;;;;;145.95;137.00;;;5.40;99.90;;;;;;4767782;30;20406;-61
2022/12/05 00:09:54;;;;;;;146.07;137.05;;;5.40;99.90;;;;;;4770202;30;20421;-61
2022/12/05 00:12:20;;;;;;;153.18;143.88;;;5.40;99.90;;;;;;4768601;30;20435;-61
2022/12/05 00:14:46;;;;;;;145.80;137.23;;;5.40;99.90;;;;;;4769147;30;20415;-61
2022/12/05 00:17:12;;;;;;;144.60;135.87;;;5.40;99.90;;;;;;4769060;30;20411;-61
2022/12/05 00:19:38;;;;;;;150.87;141.93;;;5.50;99.90;;;;;;4769570;30;20403;-61
2022/12/05 00:22:04;;;;;;;144.95;136.35;;;5.50;99.90;;;;;;4768038;30;20884;-61
2022/12/05 00:24:29;;;;;;;144.27;135.60;;;5.40;99.90;;;;;;4766555;30;20417;-61
2022/12/05 00:26:55;;;;;;;148.45;139.85;;;5.50;99.90;;;;;;4766720;30;20855;-61
2022/12/05 00:29:21;;;;;;;145.67;137.07;;;5.50;99.90;;;;;;4767624;30;20983;-61
2022/12/05 00:31:47;;;;;;;146.20;137.60;;;5.50;99.90;;;;;;4770543;30;20414;-61
2022/12/05 00:34:13;;;;;;;146.60;138.17;;;5.60;99.90;;;;;;4771911;30;20421;-62
2022/12/05 00:36:40;;;;;;;148.27;139.60;;;5.60;99.90;;;;;;4772008;30;20910;-61
2022/12/05 00:39:09;;;;;;;144.57;135.80;;;5.60;99.90;;;;;;4771943;30;20421;-61
2022/12/05 00:41:35;;;;;;;144.75;136.20;;;5.80;99.90;;;;;;4771836;30;20447;-62
2022/12/05 00:44:01;;;;;;;146.20;137.52;;;6.90;99.90;;;;;;4771794;30;20454;-61
2022/12/05 00:46:29;;;;;;;148.82;140.20;;;7.20;99.90;;;;;;4768247;30;20404;-61
2022/12/05 00:48:56;;;;;;;152.60;143.70;;;6.70;99.90;;;;;;4765272;30;20503;-61
2022/12/05 00:51:31;;;;;;;145.80;137.57;;;6.40;99.90;;;;;;4764597;30;20779;-61
2022/12/05 00:53:58;;;;;;;152.05;143.32;;;6.20;99.90;;;;;;4768210;30;20414;-62
2022/12/05 00:56:25;;;;;;;149.50;141.00;;;6.00;99.90;;;;;;4767864;30;20436;-61
2022/12/05 00:58:53;;;;;;;156.88;148.07;;;5.90;99.90;;;;;;4782817;30;20434;-61
2022/12/05 01:01:31;;;;;;;151.88;143.27;;;5.90;99.90;;;;;;4770032;30;20414;-61
2022/12/05 01:03:59;;;;;;;149.88;141.18;;;5.80;99.90;;;;;;4770642;30;20469;-61
2022/12/05 01:06:25;;;;;;;152.25;143.35;;;5.80;99.90;;;;;;4770264;30;20546;-61
2022/12/05 01:08:53;;;;;;;151.17;142.67;;;5.70;99.90;;;;;;4769696;30;20398;-61
2022/12/05 01:11:22;;;;;;;145.30;137.00;;;5.70;99.90;;;;;;4768205;30;20509;-61
2022/12/05 01:13:49;;;;;;;146.30;137.90;;;5.70;99.90;;;;;;4770095;30;20674;-61
2022/12/05 01:16:27;;;;;;;153.75;144.75;;;5.70;99.90;;;;;;4768226;30;20421;-61
2022/12/05 01:18:53;;;;;;;144.90;136.70;;;5.70;99.90;;;;;;4767162;30;20418;-61
2022/12/05 01:21:20;;;;;;;146.13;137.95;;;5.70;99.90;;;;;;4767860;30;20747;-61
2022/12/05 01:23:46;;;;;;;149.02;140.52;;;5.70;99.90;;;;;;4766924;30;20507;-61
2022/12/05 01:26:14;;;;;;;149.35;140.95;;;5.70;99.90;;;;;;4767672;30;20438;-61
2022/12/05 01:28:40;;;;;;;145.70;137.50;;;5.70;99.90;;;;;;4767093;30;20434;-61
2022/12/05 01:31:09;;;;;;;145.13;137.00;;;5.70;99.90;;;;;;4766634;30;20406;-62
2022/12/05 01:33:34;;;;;;;148.27;139.98;;;5.60;99.90;;;;;;4767927;30;20406;-61
2022/12/05 01:36:02;;;;;;;146.60;138.47;;;5.70;99.90;;;;;;4768471;30;20415;-61
2022/12/05 01:38:27;;;;;;;140.23;132.38;;;5.70;99.90;;;;;;4766239;30;20608;-61
2022/12/05 01:41:02;;;;;;;142.00;134.00;;;5.70;99.90;;;;;;4766724;30;20426;-61
2022/12/05 01:43:28;;;;;;;142.87;134.67;;;5.80;99.90;;;;;;4766942;30;20542;-62
2022/12/05 01:45:53;;;;;;;146.50;138.23;;;5.70;99.90;;;;;;4767959;30;20802;-62
2022/12/05 01:48:29;;;;;;;139.50;131.70;;;5.70;99.90;;;;;;4767602;30;20666;-62
2022/12/05 01:50:55;;;;;;;147.45;139.00;;;5.70;99.90;;;;;;4768151;30;20415;-62
2022/12/05 01:53:21;;;;;;;143.40;135.27;;;5.70;99.90;;;;;;4770839;30;20407;-62
2022/12/05 01:55:49;;;;;;;155.10;146.38;;;5.70;99.90;;;;;;4770440;30;20414;-61
2022/12/05 01:58:15;;;;;;;149.33;140.90;;;5.70;99.90;;;;;;4771802;30;20729;-62
2022/12/05 02:00:41;;;;;;;141.07;133.20;;;5.70;99.90;;;;;;4770921;30;20410;-62
2022/12/05 02:03:11;;;;;;;142.82;134.77;;;5.70;99.90;;;;;;4772364;30;20754;-61
2022/12/05 02:05:37;;;;;;;136.77;129.10;;;5.70;99.90;;;;;;4770816;30;20742;-61
2022/12/05 02:08:06;;;;;;;143.80;135.57;;;5.70;99.90;;;;;;4769550;30;20820;-62
2022/12/05 02:10:51;;;;;;;138.73;131.02;;;5.70;99.90;;;;;;4770511;30;20399;-61
2022/12/05 02:13:38;;;;;;;148.27;139.98;;;5.70;99.90;;;;;;4769845;30;20847;-61
2022/12/05 02:16:21;;;;;;;142.10;134.10;;;5.70;99.90;;;;;;4768466;30;20414;-62
2022/12/05 02:19:15;;;;;;;141.88;133.70;;;5.70;99.90;;;;;;4782215;30;20765;-62
2022/12/05 02:22:07;;;;;;;151.23;142.75;;;5.70;99.90;;;;;;4768293;30;20422;-61
2022/12/05 02:24:47;;;;;;;143.18;135.00;;;5.70;99.90;;;;;;4767000;30;20557;-62
2022/12/05 02:27:19;;;;;;;140.38;132.40;;;5.80;99.90;;;;;;4765277;30;20418;-61
2022/12/05 02:30:00;;;;;;;136.13;128.43;;;5.70;99.90;;;;;;4768025;30;20490;-62
2022/12/05 02:32:50;;;;;;;134.55;126.72;;;5.80;99.90;;;;;;4770386;30;20497;-61
2022/12/05 02:35:40;;;;;;;134.18;126.43;;;5.80;99.90;;;;;;4769973;30;20414;-61
2022/12/05 02:38:15;;;;;;;136.90;129.13;;;5.80;99.90;;;;;;4770431;30;20411;-61
2022/12/05 02:41:04;;;;;;;137.23;129.40;;;5.80;99.90;;;;;;4770585;30;20434;-59
2022/12/05 02:43:56;;;;;;;137.90;130.15;;;5.80;99.90;;;;;;4770135;30;20728;-61
2022/12/05 02:46:25;;;;;;;139.23;131.18;;;5.80;99.90;;;;;;4769198;30;20835;-61
2022/12/05 02:48:55;;;;;;;141.02;132.75;;;5.80;99.90;;;;;;4767158;30;20693;-61
2022/12/05 02:51:24;;;;;;;131.07;123.27;;;5.80;99.90;;;;;;4766092;30;20611;-62
2022/12/05 02:53:52;;;;;;;136.17;128.20;;;5.80;99.90;;;;;;4765757;30;20485;-61
2022/12/05 02:56:19;;;;;;;135.82;128.13;;;5.80;99.90;;;;;;4765330;30;20479;-62
2022/12/05 02:58:51;;;;;;;135.93;127.97;;;5.80;99.90;;;;;;4750643;30;20466;-61
2022/12/05 03:01:20;;;;;;;133.40;125.53;;;5.80;99.90;;;;;;4764751;30;20491;-61
2022/12/05 03:03:46;;;;;;;140.23;132.13;;;5.80;99.90;;;;;;4764231;30;20431;-61
2022/12/05 03:06:22;;;;;;;131.00;123.28;;;5.90;99.90;;;;;;4767268;30;20415;-61
2022/12/05 03:08:54;;;;;;;139.68;131.65;;;5.90;99.90;;;;;;4766725;30;20419;-62
2022/12/05 03:11:20;;;;;;;142.48;134.32;;;5.90;99.90;;;;;;4766372;30;20741;-61
2022/12/05 03:13:54;;;;;;;137.27;129.38;;;5.90;99.90;;;;;;4766341;30;20479;-61
2022/12/05 03:16:32;;;;;;;133.15;125.55;;;6.00;99.90;;;;;;4766291;30;20665;-61
2022/12/05 03:19:04;;;;;;;141.17;132.90;;;5.90;99.90;;;;;;4766073;30;20481;-61
2022/12/05 03:21:31;;;;;;;137.35;129.43;;;5.90;99.90;;;;;;4765558;30;20414;-61
2022/12/05 03:24:01;;;;;;;135.20;127.38;;;5.90;99.90;;;;;;4766342;30;20728;-61
2022/12/05 03:26:57;;;;;;;144.48;135.90;;;5.90;99.90;;;;;;4765876;30;20410;-61
2022/12/05 03:29:38;;;;;;;136.50;128.35;;;5.90;99.90;;;;;;4763085;30;20469;-61
2022/12/05 03:32:25;;;;;;;134.57;126.68;;;5.90;99.90;;;;;;4762618;30;20672;-62
2022/12/05 03:34:59;;;;;;;136.63;128.52;;;5.90;99.90;;;;;;4766193;30;20439;-61
2022/12/05 03:37:29;;;;;;;131.43;123.68;;;5.90;99.90;;;;;;4765672;30;20451;-61
2022/12/05 03:40:06;;;;;;;135.00;127.03;;;5.90;99.90;;;;;;4766030;30;20589;-62
2022/12/05 03:42:35;;;;;;;144.37;135.77;;;5.90;99.90;;;;;;4767573;30;20720;-61
2022/12/05 03:45:11;;;;;;;142.57;133.98;;;5.90;99.90;;;;;;4768196;30;20897;-61
2022/12/05 03:47:59;;;;;;;141.38;133.00;;;5.90;99.90;;;;;;4783456;30;20415;-61
2022/12/05 03:50:27;;;;;;;139.82;131.38;;;6.00;99.90;;;;;;4767517;30;20531;-61
2022/12/05 03:53:19;;;;;;;137.40;129.20;;;6.00;99.90;;;;;;4765283;30;20847;-62
2022/12/05 03:55:48;;;;;;;138.07;129.75;;;5.90;99.90;;;;;;4766165;30;20800;-62
2022/12/05 03:58:28;;;;;;;137.75;129.65;;;5.90;99.90;;;;;;4766947;30;20458;-62
2022/12/05 04:00:57;;;;;;;143.15;134.38;;;6.00;99.90;;;;;;4765875;30;20406;-62
2022/12/05 04:03:52;;;;;;;136.37;128.50;;;5.90;99.90;;;;;;4764062;30;20461;-62
2022/12/05 04:06:30;;;;;;;139.13;130.52;;;5.90;99.90;;;;;;4766249;30;20700;-62
2022/12/05 04:09:03;;;;;;;137.05;128.88;;;5.90;99.90;;;;;;4767567;30;20410;-62
2022/12/05 04:11:35;;;;;;;143.05;134.48;;;5.90;99.90;;;;;;4767624;30;20421;-62
2022/12/05 04:14:07;;;;;;;143.20;134.40;;;5.90;99.90;;;;;;4766478;30;20446;-61
2022/12/05 04:17:04;;;;;;;140.13;131.55;;;6.00;99.90;;;;;;4768927;30;20407;-62
2022/12/05 04:22:29;;;;;;;140.55;131.95;;;5.90;99.90;;;;;;4766752;30;20521;-62
2022/12/05 04:27:50;;;;;;;137.65;129.13;;;6.00;99.90;;;;;;4766374;30;20842;-62
2022/12/05 04:30:24;;;;;;;137.40;129.07;;;6.00;99.90;;;;;;4766047;30;20744;-61
2022/12/05 04:33:11;;;;;;;136.05;127.85;;;5.90;99.90;;;;;;4767908;30;20836;-62
2022/12/05 04:36:08;;;;;;;141.15;132.73;;;5.90;99.90;;;;;;4769275;30;20527;-61
2022/12/05 04:38:46;;;;;;;132.75;124.50;;;5.90;99.90;;;;;;4767351;30;20417;-61
2022/12/05 04:41:24;;;;;;;131.20;122.97;;;5.90;99.90;;;;;;4767739;30;20424;-61
2022/12/05 04:47:13;;;;;;;126.00;118.20;;;5.90;99.90;;;;;;4766817;30;20385;-61
2022/12/05 04:49:41;;;;;;;135.63;127.33;;;5.90;99.90;;;;;;4765128;30;20415;-61
2022/12/05 04:52:09;;;;;;;131.05;123.22;;;5.90;99.90;;;;;;4762453;30;20922;-61
2022/12/05 04:55:03;;;;;;;131.73;123.70;;;5.90;99.90;;;;;;4762662;30;20804;-61
2022/12/05 04:57:34;;;;;;;131.20;123.10;;;5.90;99.90;;;;;;4761808;30;20523;-61
2022/12/05 05:00:00;;;;;;;132.30;123.78;;;5.90;99.90;;;;;;4762659;30;20712;-61
2022/12/05 05:02:39;;;;;;;123.03;115.35;;;5.90;99.90;;;;;;4762212;30;20864;-62
2022/12/05 05:05:09;;;;;;;128.65;120.82;;;5.80;99.90;;;;;;4765541;30;20535;-61
2022/12/05 05:07:53;;;;;;;126.88;119.00;;;5.80;99.90;;;;;;4767003;30;20888;-61
2022/12/05 05:10:44;;;;;;;126.15;118.15;;;5.80;99.90;;;;;;4767366;30;20415;-61
2022/12/05 05:13:09;;;;;;;121.60;114.20;;;5.80;99.90;;;;;;4764561;30;20992;-61
2022/12/05 05:15:35;;;;;;;120.57;113.17;;;5.80;99.90;;;;;;4762060;30;20476;-62
2022/12/05 05:18:00;;;;;;;127.47;119.67;;;5.80;99.90;;;;;;4763422;30;20607;-61
2022/12/05 05:20:26;;;;;;;123.40;115.90;;;5.80;99.90;;;;;;4761919;30;20660;-62
2022/12/05 05:22:56;;;;;;;123.93;116.18;;;5.80;99.90;;;;;;4763054;30;20677;-61
2022/12/05 05:25:23;;;;;;;124.97;117.15;;;5.80;99.90;;;;;;4763232;30;20497;-61
2022/12/05 05:27:51;;;;;;;125.75;118.07;;;5.80;99.90;;;;;;4761555;30;20429;-61
2022/12/05 05:30:18;;;;;;;126.93;119.03;;;5.80;99.90;;;;;;4763069;30;20403;-61
2022/12/05 05:32:43;;;;;;;119.28;111.68;;;5.80;99.90;;;;;;4779693;30;20414;-61
2022/12/05 05:35:10;;;;;;;135.00;126.38;;;5.80;99.90;;;;;;4765873;30;20964;-62
2022/12/05 05:37:36;;;;;;;128.65;120.40;;;5.80;99.90;;;;;;4766615;30;20422;-61
2022/12/05 05:40:02;;;;;;;129.67;121.30;;;5.80;99.90;;;;;;4765780;30;20418;-62
2022/12/05 05:42:28;;;;;;;132.00;123.28;;;5.80;99.90;;;;;;4766829;30;20516;-62
2022/12/05 05:44:54;;;;;;;135.93;127.28;;;5.80;99.90;;;;;;4766402;30;20403;-62
2022/12/05 05:47:19;;;;;;;128.70;119.90;;;5.80;99.90;;;;;;4764313;30;20395;-61
2022/12/05 05:49:45;;;;;;;126.97;118.33;;;5.80;99.90;;;;;;4763570;30;20984;-62
2022/12/05 05:52:10;;;;;;;126.20;117.43;;;5.80;99.90;;;;;;4765959;30;20894;-61
2022/12/05 05:54:36;;;;;;;129.73;120.90;;;5.80;99.90;;;;;;4765771;30;20406;-62
2022/12/05 05:57:01;;;;;;;131.17;122.07;;;5.80;99.90;;;;;;4766928;30;20671;-62
2022/12/05 05:59:27;;;;;;;127.53;118.23;;;5.80;99.90;;;;;;4766625;30;20611;-61
2022/12/05 06:01:52;;;;;;;131.63;121.72;;;5.80;99.90;;;;;;4764243;30;20430;-61
2022/12/05 06:04:18;;;;;;;131.30;121.33;;;5.70;99.90;;;;;;4762231;30;20496;-61
2022/12/05 06:06:44;;;;;;;131.18;121.32;;;5.70;99.90;;;;;;4762673;30;20442;-62
2022/12/05 06:09:10;;;;;;;127.93;118.00;;;5.70;99.90;;;;;;4761524;30;20646;-61
2022/12/05 06:11:35;;;;;;;133.57;123.47;;;5.70;99.90;;;;;;4762106;30;20421;-62
2022/12/05 06:14:01;;;;;;;130.75;121.15;;;5.70;99.90;;;;;;4760353;30;20407;-61
2022/12/05 06:16:27;;;;;;;132.17;122.07;;;5.70;99.90;;;;;;4760152;30;20736;-61
2022/12/05 06:18:53;;;;;;;137.90;127.50;;;5.70;99.90;;;;;;4762506;30;20418;-61
2022/12/05 06:21:19;;;;;;;141.23;130.55;;;5.70;99.90;;;;;;4763007;30;20646;-61
2022/12/05 06:23:45;;;;;;;131.52;121.50;;;5.70;99.90;;;;;;4764742;30;20430;-61
2022/12/05 06:26:13;;;;;;;146.40;135.90;;;5.70;99.90;;;;;;4762596;30;20479;-61
2022/12/05 06:28:39;;;;;;;140.20;129.40;;;5.70;99.90;;;;;;4760041;30;20423;-62
2022/12/05 06:31:09;;;;;;;136.93;126.50;;;5.70;99.90;;;;;;4761709;30;20422;-61
2022/12/05 06:33:34;;;;;;;140.88;129.60;;;5.70;99.90;;;;;;4759689;30;20604;-61
2022/12/05 06:36:02;;;;;;;137.70;127.00;;;5.70;99.90;;;;;;4759542;30;20414;-61
2022/12/05 06:38:28;;;;;;;140.88;130.20;;;5.70;99.90;;;;;;4757809;30;20853;-61
2022/12/05 06:40:54;;;;;;;133.50;123.57;;;5.70;99.90;;;;;;4758511;30;20858;-61
2022/12/05 06:43:20;;;;;;;131.00;121.40;;;5.70;99.90;;;;;;4758357;30;20461;-62
2022/12/05 06:45:45;;;;;;;139.90;128.90;;;5.70;99.90;;;;;;4761269;30;20499;-62
2022/12/05 06:48:11;;;;;;;138.60;128.57;;;5.70;99.90;;;;;;4761315;30;20410;-62
2022/12/05 06:50:36;;;;;;;137.67;127.43;;;5.70;99.90;;;;;;4759915;30;20407;-61
2022/12/05 06:53:02;;;;;;;145.23;133.77;;;5.70;99.90;;;;;;4759788;30;20430;-62
2022/12/05 06:55:27;;;;;;;145.45;134.20;;;5.80;99.90;;;;;;4760939;30;20487;-61
2022/12/05 06:57:53;;;;;;;138.98;127.45;;;5.70;99.90;;;;;;4762856;30;20434;-62
2022/12/05 07:03:02;;;;;;;137.60;126.72;;;5.70;99.90;;;;;;4761285;30;20429;-62
2022/12/05 07:05:28;;;;;;;141.87;130.37;;;5.70;99.90;;;;;;4758738;30;20418;-61
2022/12/05 07:07:53;;;;;;;137.47;126.47;;;5.70;99.90;;;;;;4757240;30;20536;-62
2022/12/05 07:10:19;;;;;;;137.43;126.32;;;5.70;99.90;;;;;;4756392;30;20533;-61
2022/12/05 07:12:44;;;;;;;142.27;130.87;;;5.70;99.90;;;;;;4755685;30;20433;-61
2022/12/05 07:15:10;;;;;;;145.30;133.77;;;5.70;99.90;;;;;;4757527;30;20710;-62
2022/12/05 07:17:37;;;;;;;137.10;126.10;;;5.60;99.90;;;;;;4755945;30;20732;-61
2022/12/05 07:20:06;;;;;;;139.57;128.48;;;5.70;99.90;;;;;;4755965;30;20415;-62
2022/12/05 07:22:34;;;;;;;134.73;124.53;;;5.70;99.90;;;;;;4752566;30;20518;-62
2022/12/05 07:25:00;;;;;;;140.68;130.05;;;5.70;99.90;;;;;;4753501;30;20406;-62
2022/12/05 07:27:26;;;;;;;141.10;130.70;;;5.70;99.90;;;;;;4754548;30;20411;-62
2022/12/05 07:29:51;;;;;;;138.50;128.13;;;5.60;99.90;;;;;;4751047;30;20833;-62
2022/12/05 07:32:17;;;;;;;133.67;123.87;;;5.60;99.90;;;;;;4752450;30;20421;-62
2022/12/05 07:34:42;;;;;;;132.73;123.38;;;5.60;99.90;;;;;;4752456;30;20495;-61
2022/12/05 07:37:08;;;;;;;142.60;132.20;;;5.60;99.90;;;;;;4753951;30;20698;-62
2022/12/05 07:39:33;;;;;;;141.60;131.10;;;5.60;99.90;;;;;;4754055;30;20736;-62
2022/12/05 07:41:59;;;;;;;139.32;129.52;;;5.50;99.90;;;;;;4753598;30;20858;-61
2022/12/05 07:44:25;;;;;;;145.13;134.90;;;5.50;99.90;;;;;;4754431;30;20521;-61
2022/12/05 07:46:51;;;;;;;137.27;127.63;;;5.50;99.90;;;;;;4755841;30;20757;-62
2022/12/05 07:49:16;;;;;;;143.00;132.80;;;5.50;99.90;;;;;;4753763;30;20407;-62
2022/12/05 07:51:42;;;;;;;142.47;132.67;;;5.50;99.90;;;;;;4753353;30;20422;-61
2022/12/05 07:54:07;;;;;;;145.20;135.35;;;5.50;99.90;;;;;;4750621;30;20411;-61
2022/12/05 07:56:33;;;;;;;143.60;133.90;;;5.50;99.90;;;;;;4748081;30;20429;-62
2022/12/05 07:58:58;;;;;;;134.80;126.00;;;5.40;99.90;;;;;;4747936;30;20532;-61
2022/12/05 08:02:04;;;;;;;132.45;123.35;;;5.40;99.90;;;;;;4748782;30;20810;-62
2022/12/05 08:04:30;;;;;;;135.48;126.45;;;5.40;99.90;;;;;;4749738;30;20430;-61
2022/12/05 08:06:56;;;;;;;132.60;123.55;;;5.40;99.90;;;;;;4754509;30;20407;-61
2022/12/05 08:09:21;;;;;;;129.83;120.87;;;5.40;99.90;;;;;;4752921;30;20399;-62
2022/12/05 08:11:47;;;;;;;136.43;126.77;;;5.40;99.90;;;;;;4753978;30;20418;-61
2022/12/05 08:14:13;;;;;;;136.47;127.20;;;5.40;99.90;;;;;;4752032;30;20690;-62
2022/12/05 08:16:38;;;;;;;132.67;123.37;;;5.40;99.90;;;;;;4751526;30;20846;-62
2022/12/05 08:19:06;;;;;;;133.88;124.25;;;5.40;99.90;;;;;;4749226;30;20497;-62
2022/12/05 08:21:33;;;;;;;138.45;129.02;;;5.40;99.90;;;;;;4747741;30;20627;-61
2022/12/05 08:23:59;;;;;;;135.60;126.43;;;5.40;99.90;;;;;;4744900;30;20718;-62
2022/12/05 08:26:29;;;;;;;131.63;122.50;;;5.40;99.90;;;;;;4743795;30;20414;-61
2022/12/05 08:29:00;;;;;;;136.25;126.75;;;5.40;99.90;;;;;;4743730;30;20638;-61
2022/12/05 08:31:29;;;;;;;137.82;128.52;;;5.40;99.90;;;;;;4744691;30;20500;-61
2022/12/05 08:33:59;;;;;;;138.60;129.07;;;5.40;99.90;;;;;;4746536;30;20492;-62
2022/12/05 08:36:26;;;;;;;134.43;125.23;;;5.40;99.90;;;;;;4743169;30;20571;-62
2022/12/05 08:38:56;;;;;;;131.77;122.55;;;5.50;99.90;;;;;;4744051;30;20685;-61
2022/12/05 08:41:27;;;;;;;131.93;122.80;;;5.50;99.90;;;;;;4744753;30;20700;-62
2022/12/05 08:43:56;;;;;;;133.23;123.95;;;5.50;99.90;;;;;;4744105;30;20575;-62
2022/12/05 08:46:22;;;;;;;140.70;130.68;;;5.50;99.90;;;;;;4747114;30;20621;-61
2022/12/05 08:48:48;;;;;;;137.98;128.18;;;5.50;99.90;;;;;;4748876;30;21035;-62
2022/12/05 08:51:14;;;;;;;138.90;129.13;;;5.40;99.90;;;;;;4749892;30;20422;-62
2022/12/05 08:53:40;;;;;;;128.70;119.10;;;5.40;99.90;;;;;;4750619;30;20527;-62
2022/12/05 08:56:09;;;;;;;139.40;129.20;;;5.40;99.90;;;;;;4750161;30;20481;-61
2022/12/05 08:58:35;;;;;;;140.13;130.13;;;5.40;99.90;;;;;;4748332;30;20446;-62
2022/12/05 09:01:16;;;;;;;135.43;125.85;;;5.40;99.90;;;;;;4746724;30;20446;-62
2022/12/05 09:03:43;;;;;;;133.05;123.53;;;5.30;99.90;;;;;;4747591;30;20446;-61
2022/12/05 09:06:20;;;;;;;136.27;126.47;;;5.40;99.90;;;;;;4746357;30;20402;-61
2022/12/05 09:08:46;;;;;;;143.75;133.30;;;5.40;99.90;;;;;;4746434;30;20403;-62
2022/12/05 09:11:16;;;;;;;144.63;134.27;;;5.40;99.90;;;;;;4745789;30;20500;-62
2022/12/05 09:13:49;;;;;;;147.13;136.35;;;5.40;99.90;;;;;;4744133;30;20426;-62
2022/12/05 09:16:36;;;;;;;145.40;135.20;;;5.20;99.90;;;;;;4743487;30;20484;-61
2022/12/05 09:19:02;;;;;;;142.13;132.13;;;5.20;99.90;;;;;;4746168;30;20700;-61
2022/12/05 09:21:30;;;;;;;142.73;132.35;;;5.20;99.90;;;;;;4748024;30;20419;-61
2022/12/05 09:23:57;;;;;;;142.60;132.90;;;5.30;99.90;;;;;;4751803;30;20430;-62
2022/12/05 09:26:25;;;;;;;139.68;130.23;;;5.30;99.90;;;;;;4750014;30;20488;-61
2022/12/05 09:28:51;;;;;;;140.95;131.10;;;5.30;99.90;;;;;;4749283;30;20758;-61
2022/12/05 09:31:19;;;;;;;149.02;138.68;;;5.30;99.90;;;;;;4750356;30;20406;-62
2022/12/05 09:33:47;;;;;;;155.40;144.57;;;5.20;99.90;;;;;;4746890;30;20830;-62
2022/12/05 09:36:24;;;;;;;142.52;132.68;;;5.20;99.90;;;;;;4747786;30;20410;-62
2022/12/05 09:38:51;;;;;;;142.95;133.30;;;5.20;99.90;;;;;;4749092;30;20430;-61
2022/12/05 09:44:56;;;;;;;142.50;132.97;;;5.20;99.90;;;;;;4755601;30;20449;-62
2022/12/05 09:47:37;;;;;;;148.07;138.37;;;5.20;99.90;;;;;;4758997;30;20844;-62
2022/12/05 09:50:27;;;;;;;141.13;131.80;;;5.20;99.90;;;;;;4759421;30;20399;-62
2022/12/05 09:53:11;;;;;;;148.90;139.07;;;5.20;99.90;;;;;;4759454;30;20402;-62
2022/12/05 09:56:20;;;;;;;143.25;133.82;;;5.20;99.90;;;;;;4757490;30;20513;-61
2022/12/05 10:02:25;;;;;;;132.80;123.72;;;5.20;99.90;;;;;;4737897;30;20412;-62
2022/12/05 10:05:31;;;;;;;139.30;130.15;;;5.20;99.90;;;;;;4739363;30;20576;-62
2022/12/05 10:08:09;;;;;;;141.07;131.73;;;5.20;99.90;;;;;;4752478;30;20476;-61
2022/12/05 10:11:04;;;;;;;134.98;126.03;;;5.20;99.90;;;;;;4757977;30;20429;-62
2022/12/05 10:13:38;;;;;;;131.60;122.72;;;5.30;99.90;;;;;;4758737;30;20701;-62
2022/12/05 10:16:13;;;;;;;132.63;123.57;;;5.20;99.90;;;;;;4757913;30;20411;-61
2022/12/05 10:18:56;;;;;;;151.67;141.67;;;5.20;99.90;;;;;;4759854;30;20407;-62
2022/12/05 10:21:24;;;;;;;157.38;146.63;;;5.30;99.90;;;;;;4760672;30;20399;-62
2022/12/05 10:23:58;;;;;;;146.40;136.70;;;5.30;99.90;;;;;;4759770;30;20423;-61
2022/12/05 10:26:30;;;;;;;142.35;133.10;;;5.40;99.90;;;;;;4760117;30;20402;-61
2022/12/05 10:29:18;;;;;;;140.93;131.77;;;5.40;99.90;;;;;;4757125;30;20847;-61
2022/12/05 10:31:46;;;;;;;135.05;126.05;;;5.40;99.90;;;;;;4759247;30;20410;-61
2022/12/05 10:34:11;;;;;;;141.60;132.60;;;5.40;99.90;;;;;;4757747;30;20418;-61
2022/12/05 10:36:37;;;;;;;139.93;130.77;;;5.30;99.90;;;;;;4758859;30;20414;-62
2022/12/05 10:39:03;;;;;;;134.18;125.38;;;5.30;99.90;;;;;;4756845;30;20693;-63
2022/12/05 10:41:28;;;;;;;137.30;128.40;;;5.30;99.90;;;;;;4754679;30;20407;-62
2022/12/05 10:43:57;;;;;;;140.07;130.75;;;5.30;99.90;;;;;;4758312;30;20523;-60
2022/12/05 10:46:23;;;;;;;135.50;126.90;;;5.40;99.90;;;;;;4773572;30;20456;-61
2022/12/05 10:48:48;;;;;;;132.67;123.93;;;5.40;99.90;;;;;;4759593;30;20407;-61
2022/12/05 10:51:17;;;;;;;130.90;122.53;;;5.40;99.90;;;;;;4759167;30;20407;-60
2022/12/05 10:53:48;;;;;;;138.02;129.27;;;5.30;99.90;;;;;;4763053;30;20418;-58
2022/12/05 10:56:37;;;;;;;133.70;124.93;;;5.30;99.90;;;;;;4766964;30;20448;-58
2022/12/05 10:59:04;;;;;;;129.93;121.45;;;5.20;99.90;;;;;;4765059;30;20442;-61
2022/12/05 11:01:30;;;;;;;135.25;126.88;;;5.20;99.90;;;;;;4756847;30;20714;-61
2022/12/05 11:04:03;;;;;;;136.77;128.23;;;5.30;99.90;;;;;;4756753;30;20872;-61
2022/12/05 11:06:31;;;;;;;134.93;126.22;;;5.30;99.90;;;;;;4756732;30;20406;-62
2022/12/05 11:09:02;;;;;;;139.23;130.63;;;5.30;99.90;;;;;;4757051;30;20425;-63
2022/12/05 11:11:32;;;;;;;130.77;122.67;;;5.20;99.90;;;;;;4756980;30;20897;-61
2022/12/05 11:14:01;;;;;;;132.88;124.57;;;5.20;99.90;;;;;;4755054;30;20415;-61
2022/12/05 11:16:36;;;;;;;132.60;124.30;;;5.30;99.90;;;;;;4756443;30;20438;-61
2022/12/05 11:19:37;;;;;;;136.15;127.70;;;5.30;99.90;;;;;;4757777;30;20422;-61
2022/12/05 11:22:16;;;;;;;132.82;124.75;;;5.30;99.90;;;;;;4687370;30;20412;-61
2022/12/05 11:24:44;;;;;;;140.48;131.73;;;5.30;99.90;;;;;;4705586;30;20423;-61
2022/12/05 11:27:16;;;;;;;138.77;128.35;;;5.30;99.90;;;;;;4706336;30;20853;-62
2022/12/05 11:29:53;;;;;;;131.02;122.82;;;5.30;99.90;;;;;;4718829;30;20422;-60
2022/12/05 11:32:22;;;;;;;138.98;130.48;;;5.30;99.90;;;;;;4759369;30;20401;-61
2022/12/05 11:35:00;;;;;;;129.98;121.97;;;5.30;99.90;;;;;;4757019;30;20701;-62
2022/12/05 11:37:43;;;;;;;130.63;122.43;;;5.30;99.90;;;;;;4757733;30;20404;-61
2022/12/05 11:40:30;;;;;;;128.43;120.68;;;5.30;99.90;;;;;;4757961;30;20509;-61
2022/12/05 11:43:37;;;;;;;132.55;124.45;;;5.30;99.90;;;;;;4759270;30;20445;-61
2022/12/05 11:46:27;;;;;;;129.10;121.15;;;5.30;99.90;;;;;;4712763;30;21047;-61
2022/12/05 11:49:12;;;;;;;123.75;116.35;;;5.30;99.90;;;;;;4755604;30;20544;-59
2022/12/05 11:51:48;;;;;;;125.17;117.60;;;5.30;99.90;;;;;;4753077;30;20419;-59
2022/12/05 11:54:38;;;;;;;122.80;115.65;;;5.30;99.90;;;;;;4756304;30;20472;-62
2022/12/05 11:57:30;;;;;;;125.68;118.22;;;5.30;99.90;;;;;;4754376;30;20691;-62
2022/12/05 12:00:10;;;;;;;122.38;115.13;;;5.30;99.90;;;;;;4749596;30;20646;-60
2022/12/05 12:03:09;;;;;;;124.53;117.13;;;5.40;99.90;;;;;;4744330;30;20434;-60
2022/12/05 12:05:49;;;;;;;119.88;112.78;;;5.40;99.90;;;;;;4745675;30;20533;-60
2022/12/05 12:08:27;;;;;;;114.90;108.18;;;5.40;99.90;;;;;;4748753;30;20417;-60
2022/12/05 12:11:12;;;;;;;125.27;117.80;;;5.40;99.90;;;;;;4747118;30;20411;-61
2022/12/05 12:14:01;;;;;;;117.85;110.90;;;5.40;99.90;;;;;;4749145;30;20406;-60
2022/12/05 12:17:15;;;;;;;126.75;119.30;;;5.40;99.90;;;;;;4745432;30;20441;-59
2022/12/05 12:20:16;;;;;;;126.40;118.90;;;5.40;99.90;;;;;;4674394;30;20459;-60
2022/12/05 12:22:56;;;;;;;131.23;123.72;;;5.40;99.90;;;;;;4628596;30;20888;-60
2022/12/05 12:25:25;;;;;;;122.72;115.50;;;5.40;99.90;;;;;;4719523;30;20495;-60
2022/12/05 12:28:15;;;;;;;122.38;115.13;;;5.40;99.90;;;;;;4745381;30;20561;-59
2022/12/05 12:30:56;;;;;;;126.13;118.87;;;5.40;99.90;;;;;;4754734;30;20804;-60
2022/12/05 12:33:34;;;;;;;116.93;110.15;;;5.30;99.90;;;;;;4757891;30;20453;-60
2022/12/05 12:36:16;;;;;;;115.15;108.53;;;5.30;99.90;;;;;;4757395;30;20449;-60
2022/12/05 12:38:54;;;;;;;125.18;117.78;;;5.30;99.90;;;;;;4757693;30;20414;-63
2022/12/05 12:41:41;;;;;;;130.13;122.47;;;5.40;99.90;;;;;;4757225;30;20513;-61
2022/12/05 12:44:21;;;;;;;119.20;112.15;;;5.40;99.90;;;;;;4758022;30;20580;-61
2022/12/05 12:46:56;;;;;;;123.15;115.90;;;5.30;99.90;;;;;;4759300;30;20476;-61
2022/12/05 12:49:24;;;;;;;121.13;114.03;;;5.30;99.90;;;;;;4758731;30;20529;-60
2022/12/05 12:52:02;;;;;;;122.23;115.10;;;5.30;99.90;;;;;;4757320;30;20445;-60
2022/12/05 12:55:04;;;;;;;118.57;111.57;;;5.30;99.90;;;;;;4758203;30;20521;-62
2022/12/05 12:57:53;;;;;;;124.07;116.65;;;5.30;99.90;;;;;;4758545;30;20438;-61
2022/12/05 13:00:27;;;;;;;118.03;111.10;;;5.30;99.90;;;;;;4758236;30;20418;-61
2022/12/05 13:03:26;;;;;;;121.68;114.57;;;5.30;99.90;;;;;;4757540;30;21188;-61